sensor_id;sensor_type;location;lat;lon;timestamp;P1;durP1;ratioP1;P2;durP2;ratioP2
33858;SDS011;20156;47.486;12.074;2023-01-19T00:00:26;16.30;;;12.83;;
33858;SDS011;20156;47.486;12.074;2023-01-19T00:02:51;18.93;;;13.87;;
33858;SDS011;20156;47.486;12.074;2023-01-19T00:05:17;17.80;;;14.03;;
33858;SDS011;20156;47.486;12.074;2023-01-19T00:07:42;16.03;;;13.60;;
33858;SDS011;20156;47.486;12.074;2023-01-19T00:10:08;19.30;;;14.37;;
33858;SDS011;20156;47.486;12.074;2023-01-19T00:12:33;16.43;;;13.37;;
33858;SDS011;20156;47.486;12.074;2023-01-19T00:14:59;17.90;;;14.37;;
33858;SDS011;20156;47.486;12.074;2023-01-19T00:17:24;17.80;;;13.73;;
33858;SDS011;20156;47.486;12.074;2023-01-19T00:19:49;17.80;;;14.43;;
33858;SDS011;20156;47.486;12.074;2023-01-19T00:22:14;21.73;;;14.20;;
33858;SDS011;20156;47.486;12.074;2023-01-19T00:24:39;16.70;;;14.63;;
33858;SDS011;20156;47.486;12.074;2023-01-19T00:27:05;19.27;;;14.87;;
33858;SDS011;20156;47.486;12.074;2023-01-19T00:29:30;19.53;;;15.30;;
33858;SDS011;20156;47.486;12.074;2023-01-19T00:32:00;18.73;;;15.33;;
33858;SDS011;20156;47.486;12.074;2023-01-19T00:34:26;17.83;;;14.67;;
33858;SDS011;20156;47.486;12.074;2023-01-19T00:36:52;20.13;;;14.93;;
33858;SDS011;20156;47.486;12.074;2023-01-19T00:39:17;21.07;;;16.30;;
33858;SDS011;20156;47.486;12.074;2023-01-19T00:41:42;19.77;;;15.67;;
33858;SDS011;20156;47.486;12.074;2023-01-19T00:44:26;19.97;;;15.03;;
33858;SDS011;20156;47.486;12.074;2023-01-19T00:46:51;21.23;;;16.27;;
33858;SDS011;20156;47.486;12.074;2023-01-19T00:49:17;20.07;;;15.97;;
33858;SDS011;20156;47.486;12.074;2023-01-19T00:51:42;22.23;;;15.43;;
33858;SDS011;20156;47.486;12.074;2023-01-19T00:54:07;20.87;;;16.23;;
33858;SDS011;20156;47.486;12.074;2023-01-19T00:56:34;20.23;;;14.57;;
33858;SDS011;20156;47.486;12.074;2023-01-19T00:59:00;20.80;;;15.37;;
33858;SDS011;20156;47.486;12.074;2023-01-19T01:01:25;23.13;;;17.10;;
33858;SDS011;20156;47.486;12.074;2023-01-19T01:03:50;20.47;;;15.83;;
33858;SDS011;20156;47.486;12.074;2023-01-19T01:06:17;21.53;;;16.40;;
33858;SDS011;20156;47.486;12.074;2023-01-19T01:08:42;22.97;;;17.23;;
33858;SDS011;20156;47.486;12.074;2023-01-19T01:11:08;22.40;;;15.93;;
33858;SDS011;20156;47.486;12.074;2023-01-19T01:13:33;23.53;;;18.17;;
33858;SDS011;20156;47.486;12.074;2023-01-19T01:15:58;21.03;;;16.47;;
33858;SDS011;20156;47.486;12.074;2023-01-19T01:18:24;21.50;;;17.80;;
33858;SDS011;20156;47.486;12.074;2023-01-19T01:20:50;20.90;;;16.40;;
33858;SDS011;20156;47.486;12.074;2023-01-19T01:23:15;23.13;;;17.10;;
33858;SDS011;20156;47.486;12.074;2023-01-19T01:25:40;20.00;;;15.30;;
33858;SDS011;20156;47.486;12.074;2023-01-19T01:28:06;23.20;;;17.50;;
33858;SDS011;20156;47.486;12.074;2023-01-19T01:30:35;21.00;;;16.30;;
33858;SDS011;20156;47.486;12.074;2023-01-19T01:33:05;23.53;;;16.53;;
33858;SDS011;20156;47.486;12.074;2023-01-19T01:35:30;19.30;;;15.50;;
33858;SDS011;20156;47.486;12.074;2023-01-19T01:37:58;23.97;;;18.30;;
33858;SDS011;20156;47.486;12.074;2023-01-19T01:40:23;24.53;;;17.57;;
33858;SDS011;20156;47.486;12.074;2023-01-19T01:42:48;24.43;;;17.33;;
33858;SDS011;20156;47.486;12.074;2023-01-19T01:45:22;22.80;;;16.60;;
33858;SDS011;20156;47.486;12.074;2023-01-19T01:47:49;24.63;;;18.63;;
33858;SDS011;20156;47.486;12.074;2023-01-19T01:52:43;23.43;;;18.50;;
33858;SDS011;20156;47.486;12.074;2023-01-19T01:55:09;27.63;;;19.87;;
33858;SDS011;20156;47.486;12.074;2023-01-19T01:57:36;24.93;;;18.97;;
33858;SDS011;20156;47.486;12.074;2023-01-19T02:00:02;26.47;;;19.70;;
33858;SDS011;20156;47.486;12.074;2023-01-19T02:02:28;24.27;;;19.23;;
33858;SDS011;20156;47.486;12.074;2023-01-19T02:05:23;28.40;;;20.40;;
33858;SDS011;20156;47.486;12.074;2023-01-19T02:10:36;28.00;;;20.47;;
33858;SDS011;20156;47.486;12.074;2023-01-19T02:13:20;28.17;;;19.83;;
33858;SDS011;20156;47.486;12.074;2023-01-19T02:15:47;29.80;;;21.07;;
33858;SDS011;20156;47.486;12.074;2023-01-19T02:18:12;30.27;;;20.47;;
33858;SDS011;20156;47.486;12.074;2023-01-19T02:20:38;29.87;;;21.43;;
33858;SDS011;20156;47.486;12.074;2023-01-19T02:23:06;30.03;;;20.80;;
33858;SDS011;20156;47.486;12.074;2023-01-19T02:25:35;32.00;;;20.50;;
33858;SDS011;20156;47.486;12.074;2023-01-19T02:28:00;26.40;;;19.87;;
33858;SDS011;20156;47.486;12.074;2023-01-19T02:30:26;29.73;;;21.10;;
33858;SDS011;20156;47.486;12.074;2023-01-19T02:32:51;28.10;;;19.00;;
33858;SDS011;20156;47.486;12.074;2023-01-19T02:35:17;29.10;;;19.43;;
33858;SDS011;20156;47.486;12.074;2023-01-19T02:37:43;29.13;;;19.27;;
33858;SDS011;20156;47.486;12.074;2023-01-19T02:40:09;26.50;;;18.93;;
33858;SDS011;20156;47.486;12.074;2023-01-19T02:42:36;26.13;;;18.80;;
33858;SDS011;20156;47.486;12.074;2023-01-19T02:45:04;24.90;;;18.23;;
33858;SDS011;20156;47.486;12.074;2023-01-19T02:47:37;25.80;;;18.20;;
33858;SDS011;20156;47.486;12.074;2023-01-19T02:50:04;24.37;;;18.57;;
33858;SDS011;20156;47.486;12.074;2023-01-19T02:52:29;27.03;;;18.90;;
33858;SDS011;20156;47.486;12.074;2023-01-19T02:55:15;25.37;;;18.93;;
33858;SDS011;20156;47.486;12.074;2023-01-19T03:02:48;30.70;;;20.87;;
33858;SDS011;20156;47.486;12.074;2023-01-19T03:07:54;28.47;;;20.33;;
33858;SDS011;20156;47.486;12.074;2023-01-19T03:13:03;26.57;;;20.67;;
33858;SDS011;20156;47.486;12.074;2023-01-19T03:18:00;24.83;;;19.23;;
33858;SDS011;20156;47.486;12.074;2023-01-19T03:20:27;28.10;;;19.97;;
33858;SDS011;20156;47.486;12.074;2023-01-19T03:22:59;29.63;;;19.63;;
33858;SDS011;20156;47.486;12.074;2023-01-19T03:25:24;30.57;;;21.10;;
33858;SDS011;20156;47.486;12.074;2023-01-19T03:27:51;30.17;;;21.53;;
33858;SDS011;20156;47.486;12.074;2023-01-19T03:30:25;29.67;;;20.17;;
33858;SDS011;20156;47.486;12.074;2023-01-19T03:32:52;32.13;;;21.93;;
33858;SDS011;20156;47.486;12.074;2023-01-19T03:35:20;31.17;;;21.57;;
33858;SDS011;20156;47.486;12.074;2023-01-19T03:37:46;32.80;;;21.93;;
33858;SDS011;20156;47.486;12.074;2023-01-19T03:40:12;27.03;;;19.90;;
33858;SDS011;20156;47.486;12.074;2023-01-19T03:42:37;31.03;;;20.07;;
33858;SDS011;20156;47.486;12.074;2023-01-19T03:45:05;26.87;;;19.23;;
33858;SDS011;20156;47.486;12.074;2023-01-19T03:47:31;30.90;;;20.87;;
33858;SDS011;20156;47.486;12.074;2023-01-19T03:49:56;31.60;;;21.20;;
33858;SDS011;20156;47.486;12.074;2023-01-19T03:52:29;30.40;;;21.63;;
33858;SDS011;20156;47.486;12.074;2023-01-19T03:54:56;26.07;;;19.60;;
33858;SDS011;20156;47.486;12.074;2023-01-19T03:57:21;29.53;;;19.83;;
33858;SDS011;20156;47.486;12.074;2023-01-19T03:59:46;27.77;;;18.40;;
33858;SDS011;20156;47.486;12.074;2023-01-19T04:02:12;26.70;;;19.27;;
33858;SDS011;20156;47.486;12.074;2023-01-19T04:04:37;28.27;;;19.40;;
33858;SDS011;20156;47.486;12.074;2023-01-19T04:07:02;29.43;;;20.37;;
33858;SDS011;20156;47.486;12.074;2023-01-19T04:09:28;27.90;;;20.83;;
33858;SDS011;20156;47.486;12.074;2023-01-19T04:11:53;28.60;;;20.33;;
33858;SDS011;20156;47.486;12.074;2023-01-19T04:14:18;30.37;;;21.60;;
33858;SDS011;20156;47.486;12.074;2023-01-19T04:16:44;29.33;;;20.47;;
33858;SDS011;20156;47.486;12.074;2023-01-19T04:19:09;31.40;;;21.80;;
33858;SDS011;20156;47.486;12.074;2023-01-19T04:21:34;30.30;;;21.10;;
33858;SDS011;20156;47.486;12.074;2023-01-19T04:23:59;32.80;;;23.83;;
33858;SDS011;20156;47.486;12.074;2023-01-19T04:26:25;33.20;;;23.10;;
33858;SDS011;20156;47.486;12.074;2023-01-19T04:28:50;29.10;;;20.97;;
33858;SDS011;20156;47.486;12.074;2023-01-19T04:31:15;31.53;;;21.97;;
33858;SDS011;20156;47.486;12.074;2023-01-19T04:33:40;32.63;;;20.97;;
33858;SDS011;20156;47.486;12.074;2023-01-19T04:36:06;31.37;;;21.80;;
33858;SDS011;20156;47.486;12.074;2023-01-19T04:38:31;30.33;;;20.67;;
33858;SDS011;20156;47.486;12.074;2023-01-19T04:40:56;31.00;;;20.87;;
33858;SDS011;20156;47.486;12.074;2023-01-19T04:43:22;33.73;;;22.30;;
33858;SDS011;20156;47.486;12.074;2023-01-19T04:45:48;30.63;;;22.03;;
33858;SDS011;20156;47.486;12.074;2023-01-19T04:48:13;31.67;;;21.83;;
33858;SDS011;20156;47.486;12.074;2023-01-19T04:50:38;28.10;;;20.33;;
33858;SDS011;20156;47.486;12.074;2023-01-19T04:53:04;29.50;;;20.97;;
33858;SDS011;20156;47.486;12.074;2023-01-19T04:55:29;29.57;;;21.00;;
33858;SDS011;20156;47.486;12.074;2023-01-19T04:57:54;31.67;;;22.07;;
33858;SDS011;20156;47.486;12.074;2023-01-19T05:00:20;28.57;;;19.03;;
33858;SDS011;20156;47.486;12.074;2023-01-19T05:02:45;26.37;;;18.37;;
33858;SDS011;20156;47.486;12.074;2023-01-19T05:05:11;24.57;;;18.13;;
33858;SDS011;20156;47.486;12.074;2023-01-19T05:07:37;23.73;;;17.93;;
33858;SDS011;20156;47.486;12.074;2023-01-19T05:10:02;26.67;;;17.73;;
33858;SDS011;20156;47.486;12.074;2023-01-19T05:12:28;22.60;;;17.23;;
33858;SDS011;20156;47.486;12.074;2023-01-19T05:14:53;23.50;;;16.90;;
33858;SDS011;20156;47.486;12.074;2023-01-19T05:17:18;23.00;;;17.77;;
33858;SDS011;20156;47.486;12.074;2023-01-19T05:19:43;22.30;;;17.17;;
33858;SDS011;20156;47.486;12.074;2023-01-19T05:22:09;24.60;;;18.20;;
33858;SDS011;20156;47.486;12.074;2023-01-19T05:24:34;24.13;;;17.13;;
33858;SDS011;20156;47.486;12.074;2023-01-19T05:26:59;24.43;;;17.37;;
33858;SDS011;20156;47.486;12.074;2023-01-19T05:29:25;26.23;;;17.60;;
33858;SDS011;20156;47.486;12.074;2023-01-19T05:31:50;24.70;;;17.67;;
33858;SDS011;20156;47.486;12.074;2023-01-19T05:34:15;26.30;;;19.33;;
33858;SDS011;20156;47.486;12.074;2023-01-19T05:36:40;28.73;;;18.93;;
33858;SDS011;20156;47.486;12.074;2023-01-19T05:39:06;27.83;;;19.70;;
33858;SDS011;20156;47.486;12.074;2023-01-19T05:41:31;28.20;;;20.03;;
33858;SDS011;20156;47.486;12.074;2023-01-19T05:43:57;27.13;;;19.03;;
33858;SDS011;20156;47.486;12.074;2023-01-19T05:46:22;26.00;;;18.47;;
33858;SDS011;20156;47.486;12.074;2023-01-19T05:48:48;24.90;;;18.53;;
33858;SDS011;20156;47.486;12.074;2023-01-19T05:51:13;25.77;;;18.00;;
33858;SDS011;20156;47.486;12.074;2023-01-19T05:53:39;25.53;;;18.10;;
33858;SDS011;20156;47.486;12.074;2023-01-19T05:56:05;24.77;;;18.13;;
33858;SDS011;20156;47.486;12.074;2023-01-19T05:58:32;25.40;;;18.37;;
33858;SDS011;20156;47.486;12.074;2023-01-19T06:01:06;27.90;;;20.90;;
33858;SDS011;20156;47.486;12.074;2023-01-19T06:03:32;25.40;;;18.77;;
33858;SDS011;20156;47.486;12.074;2023-01-19T06:05:58;25.70;;;18.23;;
33858;SDS011;20156;47.486;12.074;2023-01-19T06:08:23;28.67;;;19.00;;
33858;SDS011;20156;47.486;12.074;2023-01-19T06:10:49;25.37;;;18.50;;
33858;SDS011;20156;47.486;12.074;2023-01-19T06:13:14;23.43;;;17.87;;
33858;SDS011;20156;47.486;12.074;2023-01-19T06:15:39;24.87;;;18.27;;
33858;SDS011;20156;47.486;12.074;2023-01-19T06:18:06;27.63;;;18.60;;
33858;SDS011;20156;47.486;12.074;2023-01-19T06:20:32;25.83;;;18.97;;
33858;SDS011;20156;47.486;12.074;2023-01-19T06:22:57;25.50;;;18.53;;
33858;SDS011;20156;47.486;12.074;2023-01-19T06:25:22;26.67;;;18.90;;
33858;SDS011;20156;47.486;12.074;2023-01-19T06:27:47;25.27;;;17.93;;
33858;SDS011;20156;47.486;12.074;2023-01-19T06:30:13;25.73;;;19.13;;
33858;SDS011;20156;47.486;12.074;2023-01-19T06:32:38;22.77;;;17.60;;
33858;SDS011;20156;47.486;12.074;2023-01-19T06:35:04;26.50;;;17.67;;
33858;SDS011;20156;47.486;12.074;2023-01-19T06:37:30;23.40;;;17.30;;
33858;SDS011;20156;47.486;12.074;2023-01-19T06:39:55;23.80;;;17.67;;
33858;SDS011;20156;47.486;12.074;2023-01-19T06:42:20;22.70;;;16.93;;
33858;SDS011;20156;47.486;12.074;2023-01-19T06:44:46;24.50;;;16.37;;
33858;SDS011;20156;47.486;12.074;2023-01-19T06:47:12;21.43;;;15.33;;
33858;SDS011;20156;47.486;12.074;2023-01-19T06:49:38;28.63;;;16.13;;
33858;SDS011;20156;47.486;12.074;2023-01-19T06:52:03;20.70;;;14.10;;
33858;SDS011;20156;47.486;12.074;2023-01-19T06:54:28;20.97;;;14.23;;
33858;SDS011;20156;47.486;12.074;2023-01-19T06:56:54;15.70;;;13.30;;
33858;SDS011;20156;47.486;12.074;2023-01-19T06:59:19;16.67;;;12.73;;
33858;SDS011;20156;47.486;12.074;2023-01-19T07:01:44;17.97;;;12.17;;
33858;SDS011;20156;47.486;12.074;2023-01-19T07:04:09;17.93;;;12.80;;
33858;SDS011;20156;47.486;12.074;2023-01-19T07:06:38;18.00;;;13.00;;
33858;SDS011;20156;47.486;12.074;2023-01-19T07:09:03;18.73;;;13.90;;
33858;SDS011;20156;47.486;12.074;2023-01-19T07:11:31;20.70;;;14.30;;
33858;SDS011;20156;47.486;12.074;2023-01-19T07:13:57;19.20;;;14.77;;
33858;SDS011;20156;47.486;12.074;2023-01-19T07:16:22;18.17;;;14.83;;
33858;SDS011;20156;47.486;12.074;2023-01-19T07:18:48;18.03;;;13.20;;
33858;SDS011;20156;47.486;12.074;2023-01-19T07:21:14;19.87;;;14.83;;
33858;SDS011;20156;47.486;12.074;2023-01-19T07:23:39;19.67;;;13.50;;
33858;SDS011;20156;47.486;12.074;2023-01-19T07:26:04;19.60;;;14.50;;
33858;SDS011;20156;47.486;12.074;2023-01-19T07:28:30;22.10;;;15.10;;
33858;SDS011;20156;47.486;12.074;2023-01-19T07:30:55;19.67;;;14.53;;
33858;SDS011;20156;47.486;12.074;2023-01-19T07:33:21;22.57;;;14.87;;
33858;SDS011;20156;47.486;12.074;2023-01-19T07:35:48;20.03;;;13.27;;
33858;SDS011;20156;47.486;12.074;2023-01-19T07:38:14;19.50;;;14.73;;
33858;SDS011;20156;47.486;12.074;2023-01-19T07:40:39;16.77;;;13.63;;
33858;SDS011;20156;47.486;12.074;2023-01-19T07:43:05;17.73;;;13.53;;
33858;SDS011;20156;47.486;12.074;2023-01-19T07:45:30;19.47;;;13.80;;
33858;SDS011;20156;47.486;12.074;2023-01-19T07:47:55;21.20;;;15.50;;
33858;SDS011;20156;47.486;12.074;2023-01-19T07:50:20;27.43;;;17.53;;
33858;SDS011;20156;47.486;12.074;2023-01-19T07:52:50;24.77;;;15.67;;
33858;SDS011;20156;47.486;12.074;2023-01-19T07:55:17;21.87;;;14.83;;
33858;SDS011;20156;47.486;12.074;2023-01-19T07:57:43;20.63;;;15.00;;
33858;SDS011;20156;47.486;12.074;2023-01-19T08:00:08;17.40;;;13.97;;
33858;SDS011;20156;47.486;12.074;2023-01-19T08:02:33;16.53;;;13.13;;
33858;SDS011;20156;47.486;12.074;2023-01-19T08:05:00;19.80;;;13.93;;
33858;SDS011;20156;47.486;12.074;2023-01-19T08:07:25;20.10;;;15.90;;
33858;SDS011;20156;47.486;12.074;2023-01-19T08:09:50;23.03;;;17.57;;
33858;SDS011;20156;47.486;12.074;2023-01-19T08:12:15;24.97;;;18.00;;
33858;SDS011;20156;47.486;12.074;2023-01-19T08:14:41;24.90;;;17.47;;
33858;SDS011;20156;47.486;12.074;2023-01-19T08:17:06;19.13;;;13.67;;
33858;SDS011;20156;47.486;12.074;2023-01-19T08:19:31;18.67;;;14.00;;
33858;SDS011;20156;47.486;12.074;2023-01-19T08:21:57;19.03;;;13.83;;
33858;SDS011;20156;47.486;12.074;2023-01-19T08:24:23;14.63;;;11.83;;
33858;SDS011;20156;47.486;12.074;2023-01-19T08:26:57;17.57;;;13.17;;
33858;SDS011;20156;47.486;12.074;2023-01-19T08:29:22;13.57;;;11.57;;
33858;SDS011;20156;47.486;12.074;2023-01-19T08:31:48;15.10;;;11.93;;
33858;SDS011;20156;47.486;12.074;2023-01-19T08:34:13;14.60;;;10.20;;
33858;SDS011;20156;47.486;12.074;2023-01-19T08:36:38;12.30;;;9.63;;
33858;SDS011;20156;47.486;12.074;2023-01-19T08:39:03;14.27;;;10.57;;
33858;SDS011;20156;47.486;12.074;2023-01-19T08:41:29;12.13;;;9.70;;
33858;SDS011;20156;47.486;12.074;2023-01-19T08:43:54;12.17;;;8.70;;
33858;SDS011;20156;47.486;12.074;2023-01-19T08:46:19;9.63;;;8.10;;
33858;SDS011;20156;47.486;12.074;2023-01-19T08:48:46;10.70;;;7.83;;
33858;SDS011;20156;47.486;12.074;2023-01-19T08:51:14;12.60;;;8.13;;
33858;SDS011;20156;47.486;12.074;2023-01-19T08:53:40;10.67;;;7.70;;
33858;SDS011;20156;47.486;12.074;2023-01-19T08:56:07;8.33;;;7.30;;
33858;SDS011;20156;47.486;12.074;2023-01-19T08:58:36;8.23;;;7.23;;
33858;SDS011;20156;47.486;12.074;2023-01-19T09:01:01;8.63;;;7.70;;
33858;SDS011;20156;47.486;12.074;2023-01-19T09:03:27;9.70;;;8.07;;
33858;SDS011;20156;47.486;12.074;2023-01-19T09:05:52;13.80;;;9.97;;
33858;SDS011;20156;47.486;12.074;2023-01-19T09:08:17;14.33;;;11.07;;
33858;SDS011;20156;47.486;12.074;2023-01-19T09:10:44;12.57;;;8.53;;
33858;SDS011;20156;47.486;12.074;2023-01-19T09:13:10;12.37;;;9.27;;
33858;SDS011;20156;47.486;12.074;2023-01-19T09:15:36;14.97;;;10.77;;
33858;SDS011;20156;47.486;12.074;2023-01-19T09:18:02;37.50;;;29.57;;
33858;SDS011;20156;47.486;12.074;2023-01-19T09:20:28;46.20;;;36.00;;
33858;SDS011;20156;47.486;12.074;2023-01-19T09:22:55;27.97;;;22.93;;
33858;SDS011;20156;47.486;12.074;2023-01-19T09:25:20;22.87;;;19.37;;
33858;SDS011;20156;47.486;12.074;2023-01-19T09:27:46;12.37;;;10.43;;
33858;SDS011;20156;47.486;12.074;2023-01-19T09:30:11;13.87;;;11.03;;
33858;SDS011;20156;47.486;12.074;2023-01-19T09:32:36;16.90;;;11.67;;
33858;SDS011;20156;47.486;12.074;2023-01-19T09:35:02;16.57;;;12.77;;
33858;SDS011;20156;47.486;12.074;2023-01-19T09:37:27;15.70;;;12.13;;
33858;SDS011;20156;47.486;12.074;2023-01-19T09:39:52;15.20;;;11.70;;
33858;SDS011;20156;47.486;12.074;2023-01-19T09:44:50;11.80;;;10.30;;
33858;SDS011;20156;47.486;12.074;2023-01-19T09:47:19;50.60;;;34.97;;
33858;SDS011;20156;47.486;12.074;2023-01-19T09:49:47;85.93;;;54.13;;
33858;SDS011;20156;47.486;12.074;2023-01-19T09:52:13;110.67;;;77.03;;
33858;SDS011;20156;47.486;12.074;2023-01-19T09:54:45;42.50;;;31.63;;
33858;SDS011;20156;47.486;12.074;2023-01-19T09:57:11;56.67;;;44.10;;
33858;SDS011;20156;47.486;12.074;2023-01-19T09:59:37;25.00;;;20.13;;
33858;SDS011;20156;47.486;12.074;2023-01-19T10:02:24;23.97;;;20.13;;
33858;SDS011;20156;47.486;12.074;2023-01-19T10:04:58;17.13;;;13.10;;
33858;SDS011;20156;47.486;12.074;2023-01-19T10:12:42;13.60;;;10.77;;
33858;SDS011;20156;47.486;12.074;2023-01-19T10:18:07;11.87;;;9.60;;
33858;SDS011;20156;47.486;12.074;2023-01-19T10:20:37;12.63;;;10.50;;
33858;SDS011;20156;47.486;12.074;2023-01-19T10:23:04;11.40;;;9.97;;
33858;SDS011;20156;47.486;12.074;2023-01-19T10:25:40;11.53;;;9.23;;
33858;SDS011;20156;47.486;12.074;2023-01-19T10:28:06;9.93;;;8.73;;
33858;SDS011;20156;47.486;12.074;2023-01-19T10:30:32;10.97;;;8.60;;
33858;SDS011;20156;47.486;12.074;2023-01-19T10:32:58;12.17;;;9.17;;
33858;SDS011;20156;47.486;12.074;2023-01-19T10:35:24;10.70;;;9.00;;
33858;SDS011;20156;47.486;12.074;2023-01-19T10:37:59;10.90;;;8.67;;
33858;SDS011;20156;47.486;12.074;2023-01-19T10:42:51;13.77;;;9.93;;
33858;SDS011;20156;47.486;12.074;2023-01-19T10:47:41;13.10;;;8.97;;
33858;SDS011;20156;47.486;12.074;2023-01-19T10:52:45;13.37;;;9.33;;
33858;SDS011;20156;47.486;12.074;2023-01-19T10:55:22;14.57;;;10.80;;
33858;SDS011;20156;47.486;12.074;2023-01-19T10:57:47;10.80;;;8.40;;
33858;SDS011;20156;47.486;12.074;2023-01-19T11:00:35;6.07;;;4.90;;
33858;SDS011;20156;47.486;12.074;2023-01-19T11:03:04;7.40;;;6.23;;
33858;SDS011;20156;47.486;12.074;2023-01-19T11:05:44;5.93;;;4.77;;
33858;SDS011;20156;47.486;12.074;2023-01-19T11:08:28;7.30;;;6.40;;
33858;SDS011;20156;47.486;12.074;2023-01-19T11:10:54;8.40;;;6.83;;
33858;SDS011;20156;47.486;12.074;2023-01-19T11:13:21;6.93;;;5.20;;
33858;SDS011;20156;47.486;12.074;2023-01-19T11:15:49;5.17;;;4.70;;
33858;SDS011;20156;47.486;12.074;2023-01-19T11:18:23;6.70;;;6.03;;
33858;SDS011;20156;47.486;12.074;2023-01-19T11:20:51;8.67;;;6.60;;
33858;SDS011;20156;47.486;12.074;2023-01-19T11:23:19;6.13;;;5.33;;
33858;SDS011;20156;47.486;12.074;2023-01-19T11:25:47;6.70;;;5.80;;
33858;SDS011;20156;47.486;12.074;2023-01-19T11:28:34;8.60;;;7.20;;
33858;SDS011;20156;47.486;12.074;2023-01-19T11:33:33;20.50;;;14.13;;
33858;SDS011;20156;47.486;12.074;2023-01-19T11:36:03;58.40;;;35.73;;
33858;SDS011;20156;47.486;12.074;2023-01-19T11:38:29;95.97;;;56.77;;
33858;SDS011;20156;47.486;12.074;2023-01-19T11:40:56;48.33;;;34.73;;
33858;SDS011;20156;47.486;12.074;2023-01-19T11:43:23;23.50;;;17.23;;
33858;SDS011;20156;47.486;12.074;2023-01-19T11:45:48;12.43;;;9.27;;
33858;SDS011;20156;47.486;12.074;2023-01-19T11:48:22;12.87;;;9.27;;
33858;SDS011;20156;47.486;12.074;2023-01-19T11:50:49;7.33;;;6.63;;
33858;SDS011;20156;47.486;12.074;2023-01-19T11:53:19;12.93;;;9.23;;
33858;SDS011;20156;47.486;12.074;2023-01-19T11:55:52;10.90;;;8.30;;
33858;SDS011;20156;47.486;12.074;2023-01-19T11:58:20;10.33;;;7.17;;
33858;SDS011;20156;47.486;12.074;2023-01-19T12:05:50;9.90;;;8.27;;
33858;SDS011;20156;47.486;12.074;2023-01-19T12:08:21;8.77;;;7.80;;
33858;SDS011;20156;47.486;12.074;2023-01-19T12:10:47;10.10;;;7.53;;
33858;SDS011;20156;47.486;12.074;2023-01-19T12:13:20;9.83;;;7.93;;
33858;SDS011;20156;47.486;12.074;2023-01-19T12:15:46;12.00;;;8.80;;
33858;SDS011;20156;47.486;12.074;2023-01-19T12:18:20;14.60;;;10.57;;
33858;SDS011;20156;47.486;12.074;2023-01-19T12:20:46;11.97;;;9.10;;
33858;SDS011;20156;47.486;12.074;2023-01-19T12:24:00;14.30;;;9.87;;
33858;SDS011;20156;47.486;12.074;2023-01-19T12:28:27;9.67;;;7.10;;
33858;SDS011;20156;47.486;12.074;2023-01-19T12:30:53;9.60;;;7.47;;
33858;SDS011;20156;47.486;12.074;2023-01-19T12:35:54;9.13;;;7.43;;
33858;SDS011;20156;47.486;12.074;2023-01-19T12:43:39;9.20;;;8.10;;
33858;SDS011;20156;47.486;12.074;2023-01-19T12:46:17;10.63;;;8.80;;
33858;SDS011;20156;47.486;12.074;2023-01-19T12:48:42;10.83;;;8.87;;
33858;SDS011;20156;47.486;12.074;2023-01-19T12:51:07;9.37;;;7.50;;
33858;SDS011;20156;47.486;12.074;2023-01-19T12:53:33;14.07;;;9.53;;
33858;SDS011;20156;47.486;12.074;2023-01-19T12:55:58;9.27;;;7.60;;
33858;SDS011;20156;47.486;12.074;2023-01-19T12:58:25;8.17;;;7.30;;
33858;SDS011;20156;47.486;12.074;2023-01-19T13:01:12;9.87;;;7.37;;
33858;SDS011;20156;47.486;12.074;2023-01-19T13:06:07;11.00;;;8.63;;
33858;SDS011;20156;47.486;12.074;2023-01-19T13:11:16;11.60;;;9.23;;
33858;SDS011;20156;47.486;12.074;2023-01-19T13:13:43;15.33;;;9.30;;
33858;SDS011;20156;47.486;12.074;2023-01-19T13:23:53;12.20;;;7.83;;
33858;SDS011;20156;47.486;12.074;2023-01-19T13:26:20;12.40;;;7.87;;
33858;SDS011;20156;47.486;12.074;2023-01-19T13:28:48;9.20;;;7.50;;
33858;SDS011;20156;47.486;12.074;2023-01-19T13:31:14;146.30;;;59.67;;
33858;SDS011;20156;47.486;12.074;2023-01-19T13:33:44;27.13;;;13.23;;
33858;SDS011;20156;47.486;12.074;2023-01-19T13:36:45;10.53;;;7.83;;
33858;SDS011;20156;47.486;12.074;2023-01-19T13:39:05;12.47;;;8.47;;
33858;SDS011;20156;47.486;12.074;2023-01-19T13:41:34;11.23;;;8.73;;
33858;SDS011;20156;47.486;12.074;2023-01-19T13:44:13;11.63;;;8.53;;
33858;SDS011;20156;47.486;12.074;2023-01-19T13:46:41;14.93;;;9.00;;
33858;SDS011;20156;47.486;12.074;2023-01-19T13:54:29;11.43;;;8.90;;
33858;SDS011;20156;47.486;12.074;2023-01-19T13:56:55;11.13;;;9.00;;
33858;SDS011;20156;47.486;12.074;2023-01-19T13:59:20;12.03;;;8.70;;
33858;SDS011;20156;47.486;12.074;2023-01-19T14:01:45;17.00;;;9.20;;
33858;SDS011;20156;47.486;12.074;2023-01-19T14:04:24;11.87;;;8.73;;
33858;SDS011;20156;47.486;12.074;2023-01-19T14:06:49;13.27;;;8.40;;
33858;SDS011;20156;47.486;12.074;2023-01-19T14:09:19;11.27;;;8.83;;
33858;SDS011;20156;47.486;12.074;2023-01-19T14:11:45;12.47;;;9.13;;
33858;SDS011;20156;47.486;12.074;2023-01-19T14:14:21;9.97;;;7.60;;
33858;SDS011;20156;47.486;12.074;2023-01-19T14:16:47;8.40;;;7.37;;
33858;SDS011;20156;47.486;12.074;2023-01-19T14:19:12;11.07;;;8.17;;
33858;SDS011;20156;47.486;12.074;2023-01-19T14:21:40;11.13;;;7.47;;
33858;SDS011;20156;47.486;12.074;2023-01-19T14:24:16;11.43;;;8.20;;
33858;SDS011;20156;47.486;12.074;2023-01-19T14:29:29;13.73;;;7.43;;
33858;SDS011;20156;47.486;12.074;2023-01-19T14:34:43;10.93;;;8.50;;
33858;SDS011;20156;47.486;12.074;2023-01-19T14:37:19;9.30;;;8.27;;
33858;SDS011;20156;47.486;12.074;2023-01-19T14:39:46;10.10;;;8.00;;
33858;SDS011;20156;47.486;12.074;2023-01-19T14:44:47;11.47;;;9.40;;
33858;SDS011;20156;47.486;12.074;2023-01-19T14:47:51;11.43;;;8.37;;
33858;SDS011;20156;47.486;12.074;2023-01-19T14:50:17;10.33;;;8.67;;
33858;SDS011;20156;47.486;12.074;2023-01-19T14:52:47;12.87;;;9.00;;
33858;SDS011;20156;47.486;12.074;2023-01-19T14:55:15;10.27;;;8.60;;
33858;SDS011;20156;47.486;12.074;2023-01-19T14:57:42;14.90;;;9.00;;
33858;SDS011;20156;47.486;12.074;2023-01-19T15:00:11;12.00;;;9.10;;
33858;SDS011;20156;47.486;12.074;2023-01-19T15:02:40;13.03;;;9.27;;
33858;SDS011;20156;47.486;12.074;2023-01-19T15:05:05;12.30;;;9.53;;
33858;SDS011;20156;47.486;12.074;2023-01-19T15:07:32;13.87;;;10.30;;
33858;SDS011;20156;47.486;12.074;2023-01-19T15:09:57;15.23;;;9.37;;
33858;SDS011;20156;47.486;12.074;2023-01-19T15:12:23;14.13;;;11.63;;
33858;SDS011;20156;47.486;12.074;2023-01-19T15:14:50;12.47;;;10.50;;
33858;SDS011;20156;47.486;12.074;2023-01-19T15:17:16;12.73;;;10.17;;
33858;SDS011;20156;47.486;12.074;2023-01-19T15:19:49;10.67;;;9.43;;
33858;SDS011;20156;47.486;12.074;2023-01-19T15:22:14;11.50;;;9.93;;
33858;SDS011;20156;47.486;12.074;2023-01-19T15:24:39;10.80;;;8.57;;
33858;SDS011;20156;47.486;12.074;2023-01-19T15:27:07;13.87;;;9.73;;
33858;SDS011;20156;47.486;12.074;2023-01-19T15:29:33;14.63;;;9.70;;
33858;SDS011;20156;47.486;12.074;2023-01-19T15:31:58;12.03;;;9.63;;
33858;SDS011;20156;47.486;12.074;2023-01-19T15:34:23;14.50;;;9.93;;